LIPQ METAR and TAF | Updated Today

LIPQ METAR

Trieste–Friuli Venezia Giulia Airport

Observation time: 20 min. ago

LIPQ 060850Z AUTO 33003KT 290V360 9999 NCD 06/01 Q1008

Need help? Read our tutorial on how to read METARs or read the parsed version below.

Trieste–Friuli Venezia Giulia Airport (LIPQ) METAR

  • Weather conditions on Mon, 06 Dec 2021 08:50:00 +0000 (20 min. ago):
  • Present conditions: Dry
  • Clouds: Nil cloud detected
  • Visibility: Greater than 10 km
  • Wind: 330 degrees at 3 knots
  • Temperature: 6 celsius
  • Dew point: 1 celsius
  • Pressure: 1008 millibars
  • Remarks: None


Useful to know...

LIPQ TAF

Trieste–Friuli Venezia Giulia Airport

TAF LIPQ 060500Z 0606/0706 VRB05KT 9999 SCT030
Observation time: 4:10 hr. ago
Need help? Read our tutorial on how to read TAFs or read the parsed version below.

Parsed version of TAF for Trieste–Friuli Venezia Giulia Airport (LIPQ)

  • From 06 December at 06:00 UTC, to day 07 of the month at 06:00 UTC
  • Clouds: Scattered at 914 meters
  • Visibility: Greater than 10 km
  • Wind: Variable at 5